Time;durP1;ratioP1;P1;durP2;ratioP2;P2;SDS_P1;SDS_P2;PMS_P1;PMS_P2;Temp;Humidity;BMP_temperature;BMP_pressure;BME280_temperature;BME280_humidity;BME280_pressure;Samples;Min_cycle;Max_cycle;Signal;HPM_P1;HPM_P2
2023/03/19 00:00:09;;;;;;;23.42;18.58;;;28.80;77.50;;;;;;5008108;28;20032;-49
2023/03/19 00:02:36;;;;;;;25.58;18.80;;;28.80;77.50;;;;;;5013740;28;20030;-45
2023/03/19 00:05:05;;;;;;;27.83;18.88;;;28.80;77.90;;;;;;5004624;28;20093;-49
2023/03/19 00:07:35;;;;;;;22.60;17.98;;;28.80;77.80;;;;;;5012936;28;20041;-49
2023/03/19 00:10:02;;;;;;;21.42;18.00;;;28.80;77.70;;;;;;5024093;28;20089;-47
2023/03/19 00:12:28;;;;;;;19.85;17.73;;;28.80;77.60;;;;;;5018389;28;20099;-46
2023/03/19 00:14:55;;;;;;;25.88;18.30;;;28.80;77.70;;;;;;5004023;28;20381;-48
2023/03/19 00:17:22;;;;;;;24.75;17.42;;;28.70;77.50;;;;;;5009436;28;20098;-44
2023/03/19 00:19:48;;;;;;;22.05;17.55;;;28.80;77.60;;;;;;5011805;28;20437;-49
2023/03/19 00:22:15;;;;;;;23.17;17.13;;;28.80;77.40;;;;;;5004765;28;20076;-48
2023/03/19 00:24:42;;;;;;;23.55;17.58;;;28.80;77.20;;;;;;5006796;28;20023;-51
2023/03/19 00:27:08;;;;;;;24.13;16.95;;;28.80;77.00;;;;;;5020317;28;20026;-45
2023/03/19 00:29:35;;;;;;;21.23;17.25;;;28.70;76.80;;;;;;5013389;28;20314;-44
2023/03/19 00:32:02;;;;;;;18.80;16.63;;;28.70;76.60;;;;;;5010421;28;20042;-48
2023/03/19 00:34:28;;;;;;;20.52;16.92;;;28.70;76.60;;;;;;5015563;28;20013;-52
2023/03/19 00:36:55;;;;;;;19.80;16.63;;;28.70;76.50;;;;;;5007142;28;20026;-52
2023/03/19 00:39:22;;;;;;;20.25;17.38;;;28.70;76.50;;;;;;5007971;28;20060;-46
2023/03/19 00:41:49;;;;;;;20.13;16.73;;;28.70;76.60;;;;;;5016262;28;20034;-58
2023/03/19 00:44:18;;;;;;;21.88;16.73;;;28.70;76.70;;;;;;5026712;28;20356;-45
2023/03/19 00:46:48;;;;;;;21.15;16.27;;;28.70;76.70;;;;;;5021793;28;20195;-47
2023/03/19 00:49:15;;;;;;;21.05;16.45;;;28.70;76.50;;;;;;5011845;28;20046;-57
2023/03/19 00:51:42;;;;;;;21.25;16.92;;;28.70;76.30;;;;;;5022846;28;20045;-48
2023/03/19 00:54:17;;;;;;;19.98;16.77;;;28.70;76.30;;;;;;5027678;28;20026;-45
2023/03/19 00:56:52;;;;;;;23.73;16.83;;;28.60;76.20;;;;;;5001000;28;20140;-51
2023/03/19 00:59:19;;;;;;;22.00;16.23;;;28.60;76.00;;;;;;5015924;28;20022;-50
2023/03/19 01:01:45;;;;;;;19.95;16.05;;;28.60;75.80;;;;;;5019295;28;20059;-50
2023/03/19 01:04:13;;;;;;;28.00;17.05;;;28.60;75.60;;;;;;5008227;28;20231;-53
2023/03/19 01:06:40;;;;;;;19.92;17.13;;;28.60;75.60;;;;;;5008631;28;20042;-49
2023/03/19 01:09:07;;;;;;;22.77;16.75;;;28.60;75.50;;;;;;5017986;28;20069;-45
2023/03/19 01:11:34;;;;;;;20.23;16.95;;;28.60;75.50;;;;;;5015277;28;20018;-48
2023/03/19 01:14:01;;;;;;;20.85;17.05;;;28.60;75.40;;;;;;5022985;28;20053;-45
2023/03/19 01:16:28;;;;;;;26.38;17.80;;;28.60;75.30;;;;;;5024369;28;20017;-53
2023/03/19 01:18:54;;;;;;;20.77;17.92;;;28.60;75.30;;;;;;5022592;28;20030;-49
2023/03/19 01:21:21;;;;;;;20.23;17.63;;;28.60;75.30;;;;;;5019327;28;20052;-44
2023/03/19 01:23:48;;;;;;;25.75;17.30;;;28.60;75.30;;;;;;5026885;28;20022;-46
2023/03/19 01:26:14;;;;;;;27.38;16.70;;;28.60;75.20;;;;;;5020809;28;20089;-43
2023/03/19 01:28:42;;;;;;;25.30;17.88;;;28.50;75.10;;;;;;5015159;28;20033;-45
2023/03/19 01:31:08;;;;;;;23.52;17.45;;;28.50;74.90;;;;;;5013814;28;20037;-47
2023/03/19 01:33:36;;;;;;;26.60;19.02;;;28.50;74.90;;;;;;5010358;28;20098;-45
2023/03/19 01:36:05;;;;;;;22.25;17.35;;;28.50;74.90;;;;;;5013966;28;20022;-47
2023/03/19 01:38:34;;;;;;;23.25;17.08;;;28.50;74.90;;;;;;5014071;28;20038;-50
2023/03/19 01:41:04;;;;;;;22.33;17.25;;;28.50;74.80;;;;;;5015857;28;20045;-49
2023/03/19 01:43:31;;;;;;;18.58;16.33;;;28.50;74.80;;;;;;5007802;28;20038;-45
2023/03/19 01:46:06;;;;;;;22.08;17.23;;;28.50;74.80;;;;;;5007338;28;20031;-48
2023/03/19 01:48:46;;;;;;;19.48;17.48;;;28.40;74.70;;;;;;5019060;28;20038;-50
2023/03/19 01:51:40;;;;;;;22.75;18.15;;;28.40;75.00;;;;;;5014828;28;20037;-54
2023/03/19 01:54:14;;;;;;;24.88;19.02;;;28.40;74.80;;;;;;5007530;28;20034;-46
2023/03/19 01:56:57;;;;;;;26.30;18.67;;;28.40;74.90;;;;;;5026217;28;20026;-49
2023/03/19 01:59:41;;;;;;;23.35;18.58;;;28.40;74.90;;;;;;5027376;28;20044;-52
2023/03/19 02:02:34;;;;;;;20.00;17.42;;;28.30;74.90;;;;;;5026456;28;20034;-47
2023/03/19 02:05:14;;;;;;;21.98;18.27;;;28.30;74.80;;;;;;5026431;28;20089;-53
2023/03/19 02:07:50;;;;;;;20.35;17.48;;;28.40;74.90;;;;;;5015571;28;20038;-57
2023/03/19 02:10:49;;;;;;;22.27;17.88;;;28.30;74.80;;;;;;4997412;28;20353;-50
2023/03/19 02:13:18;;;;;;;24.13;17.42;;;28.30;75.00;;;;;;5007612;28;20032;-48
2023/03/19 02:15:45;;;;;;;26.05;18.20;;;28.30;75.00;;;;;;5018365;28;20242;-53
2023/03/19 02:18:13;;;;;;;23.88;17.83;;;28.30;75.20;;;;;;5020592;28;20034;-51
2023/03/19 02:20:51;;;;;;;25.15;17.77;;;28.20;75.70;;;;;;5008401;28;20068;-50
2023/03/19 02:23:41;;;;;;;23.85;18.13;;;28.20;75.10;;;;;;5024744;28;20021;-51
2023/03/19 02:26:20;;;;;;;19.98;17.88;;;28.20;75.20;;;;;;5011907;28;20033;-46
2023/03/19 02:28:48;;;;;;;23.63;20.20;;;28.20;75.20;;;;;;5009805;28;20030;-44
2023/03/19 02:31:17;;;;;;;25.10;22.50;;;28.20;75.20;;;;;;5007060;28;20211;-50
2023/03/19 02:34:25;;;;;;;23.88;20.20;;;28.30;75.30;;;;;;5005776;28;20042;-47
2023/03/19 02:36:59;;;;;;;22.35;19.95;;;28.20;75.30;;;;;;5006138;28;20069;-44
2023/03/19 02:39:46;;;;;;;23.33;20.55;;;28.20;75.50;;;;;;5013530;28;20030;-49
2023/03/19 02:42:14;;;;;;;24.33;20.13;;;28.20;75.20;;;;;;5007972;28;20037;-45
2023/03/19 02:44:40;;;;;;;28.13;20.48;;;28.20;75.20;;;;;;5025252;28;20033;-51
2023/03/19 02:47:07;;;;;;;26.63;20.48;;;28.20;75.10;;;;;;5026566;28;20033;-54
2023/03/19 02:49:34;;;;;;;21.65;19.35;;;28.20;75.00;;;;;;5026081;28;20080;-44
2023/03/19 02:52:04;;;;;;;23.38;19.48;;;28.20;75.00;;;;;;5025840;28;20022;-49
2023/03/19 02:54:30;;;;;;;21.42;19.08;;;28.20;75.10;;;;;;5025679;28;20021;-47
2023/03/19 02:56:57;;;;;;;20.40;18.40;;;28.20;75.50;;;;;;5025358;28;20018;-50
2023/03/19 02:59:25;;;;;;;21.05;18.77;;;28.20;75.00;;;;;;5017642;28;20030;-50
2023/03/19 03:01:51;;;;;;;21.33;19.23;;;28.20;75.20;;;;;;5014088;28;20034;-48
2023/03/19 03:04:18;;;;;;;21.65;19.08;;;28.20;75.00;;;;;;5025885;28;20037;-46
2023/03/19 03:06:45;;;;;;;20.08;18.02;;;28.20;75.00;;;;;;5025305;28;20033;-49
2023/03/19 03:09:16;;;;;;;20.17;18.08;;;28.20;74.90;;;;;;5025513;28;20040;-49
2023/03/19 03:11:42;;;;;;;22.15;19.02;;;28.20;75.00;;;;;;4991045;28;20037;-44
2023/03/19 03:14:10;;;;;;;21.90;18.63;;;28.20;75.10;;;;;;5011576;28;20314;-49
2023/03/19 03:16:37;;;;;;;26.02;19.13;;;28.20;75.20;;;;;;5014662;28;20045;-44
2023/03/19 03:19:04;;;;;;;24.52;17.88;;;28.10;75.30;;;;;;5009988;28;20018;-42
2023/03/19 03:21:32;;;;;;;23.95;19.13;;;28.10;75.50;;;;;;5005387;28;20022;-45
2023/03/19 03:23:59;;;;;;;22.33;18.35;;;28.10;75.60;;;;;;5009968;28;20328;-47
2023/03/19 03:26:26;;;;;;;23.92;18.48;;;28.00;75.70;;;;;;5018847;28;20032;-43
2023/03/19 03:28:52;;;;;;;24.77;18.17;;;27.90;75.70;;;;;;5005237;28;20223;-47
2023/03/19 03:31:20;;;;;;;22.35;18.10;;;27.90;75.80;;;;;;5005515;28;20081;-45
2023/03/19 03:33:46;;;;;;;19.92;17.90;;;27.90;76.00;;;;;;5005115;28;20027;-45
2023/03/19 03:36:13;;;;;;;24.15;18.45;;;27.90;76.00;;;;;;5005077;28;20046;-44
2023/03/19 03:38:40;;;;;;;20.92;18.65;;;27.90;76.10;;;;;;5007240;28;20026;-54
2023/03/19 03:41:06;;;;;;;25.77;18.63;;;27.90;76.20;;;;;;5018255;28;20346;-46
2023/03/19 03:43:33;;;;;;;21.77;19.05;;;27.90;76.10;;;;;;5002283;28;20042;-44
2023/03/19 03:46:00;;;;;;;23.50;19.40;;;27.80;76.10;;;;;;5024407;28;20030;-43
2023/03/19 03:48:28;;;;;;;22.02;19.25;;;27.80;76.00;;;;;;5019258;28;20097;-46
2023/03/19 03:50:54;;;;;;;21.85;18.80;;;27.80;76.10;;;;;;5015717;28;20322;-44
2023/03/19 03:53:24;;;;;;;21.75;18.30;;;27.80;76.20;;;;;;5020610;28;20097;-46
2023/03/19 03:55:54;;;;;;;21.40;19.30;;;27.80;76.20;;;;;;5022560;28;20249;-51
2023/03/19 03:58:24;;;;;;;22.40;19.40;;;27.80;76.10;;;;;;5011444;28;20018;-47
2023/03/19 04:00:53;;;;;;;23.98;19.13;;;27.80;76.20;;;;;;5013741;28;20026;-43
2023/03/19 04:03:21;;;;;;;20.58;18.38;;;27.80;76.20;;;;;;5022490;28;20094;-46
2023/03/19 04:05:47;;;;;;;20.42;18.20;;;27.70;76.80;;;;;;5007191;28;20341;-47
2023/03/19 04:08:14;;;;;;;21.27;18.15;;;27.70;76.30;;;;;;5018715;28;20022;-53
2023/03/19 04:10:42;;;;;;;20.50;17.80;;;27.70;76.40;;;;;;5009774;28;20037;-52
2023/03/19 04:13:10;;;;;;;21.10;18.75;;;27.70;76.40;;;;;;5004682;28;20033;-48
2023/03/19 04:15:37;;;;;;;23.48;19.23;;;27.70;76.60;;;;;;5004744;28;20373;-46
2023/03/19 04:18:06;;;;;;;20.95;18.38;;;27.70;76.50;;;;;;5024226;28;20036;-46
2023/03/19 04:20:33;;;;;;;22.75;19.10;;;27.70;76.50;;;;;;5024721;28;20030;-45
2023/03/19 04:23:00;;;;;;;21.77;19.63;;;27.70;76.60;;;;;;5016119;28;20026;-47
2023/03/19 04:25:28;;;;;;;25.80;19.00;;;27.70;76.70;;;;;;5004771;28;20038;-49
2023/03/19 04:27:57;;;;;;;22.35;19.55;;;27.70;76.60;;;;;;5004878;28;20027;-45
2023/03/19 04:30:24;;;;;;;22.10;19.73;;;27.70;76.70;;;;;;5006102;28;20030;-52
2023/03/19 04:32:50;;;;;;;22.80;19.63;;;27.70;76.90;;;;;;5019862;28;20042;-44
2023/03/19 04:35:17;;;;;;;25.33;20.15;;;27.60;77.00;;;;;;5010495;28;20031;-42
2023/03/19 04:37:47;;;;;;;22.83;19.65;;;27.60;77.10;;;;;;5004378;28;20027;-45
2023/03/19 04:40:15;;;;;;;22.20;19.90;;;27.60;77.20;;;;;;5004268;28;20061;-49
2023/03/19 04:42:43;;;;;;;21.33;18.88;;;27.60;77.40;;;;;;5004219;28;20042;-51
2023/03/19 04:45:10;;;;;;;22.63;19.90;;;27.60;77.40;;;;;;5004556;28;20030;-52
2023/03/19 04:47:37;;;;;;;23.20;19.77;;;27.60;77.60;;;;;;5004184;28;20033;-57
2023/03/19 04:50:04;;;;;;;24.17;19.92;;;27.60;77.50;;;;;;5012291;28;20046;-43
2023/03/19 04:52:36;;;;;;;21.95;19.40;;;27.60;77.60;;;;;;5014171;28;20073;-47
2023/03/19 04:55:04;;;;;;;22.40;20.17;;;27.60;77.60;;;;;;5010828;28;20046;-49
2023/03/19 04:57:31;;;;;;;21.30;19.17;;;27.60;77.60;;;;;;4994546;28;20210;-45
2023/03/19 04:59:57;;;;;;;22.90;19.02;;;27.50;77.50;;;;;;5023901;28;20046;-44
2023/03/19 05:02:25;;;;;;;22.38;18.45;;;27.60;77.50;;;;;;5021160;28;20038;-43
2023/03/19 05:04:51;;;;;;;23.52;19.20;;;27.50;77.30;;;;;;5024084;28;20306;-42
2023/03/19 05:07:18;;;;;;;21.98;18.92;;;27.60;77.50;;;;;;5023590;28;20380;-48
2023/03/19 05:09:46;;;;;;;22.90;18.75;;;27.50;77.40;;;;;;5024018;28;20136;-45
2023/03/19 05:12:13;;;;;;;21.23;19.08;;;27.50;77.40;;;;;;5023699;28;20033;-41
2023/03/19 05:14:40;;;;;;;21.15;18.95;;;27.60;77.50;;;;;;5023859;28;20018;-48
2023/03/19 05:17:06;;;;;;;20.63;18.60;;;27.50;77.70;;;;;;5023600;28;20061;-43
2023/03/19 05:19:33;;;;;;;21.80;19.42;;;27.60;77.50;;;;;;5023855;28;20083;-42
2023/03/19 05:21:59;;;;;;;21.63;19.27;;;27.50;77.40;;;;;;5022563;28;20217;-48
2023/03/19 05:24:26;;;;;;;20.92;18.83;;;27.60;77.30;;;;;;5023425;28;20037;-48
2023/03/19 05:26:53;;;;;;;21.02;19.02;;;27.60;77.40;;;;;;5008379;28;20360;-44
2023/03/19 05:29:19;;;;;;;21.20;18.58;;;27.60;77.20;;;;;;5013556;28;20041;-48
2023/03/19 05:31:46;;;;;;;21.10;18.92;;;27.60;77.30;;;;;;5027276;28;20026;-48
2023/03/19 05:34:13;;;;;;;20.52;18.60;;;27.60;77.20;;;;;;5024801;28;20021;-49
2023/03/19 05:36:40;;;;;;;20.48;18.27;;;27.50;77.20;;;;;;5017540;28;20257;-55
2023/03/19 05:39:07;;;;;;;21.40;18.67;;;27.50;76.70;;;;;;5015485;28;20210;-49
2023/03/19 05:41:33;;;;;;;22.25;19.30;;;27.60;76.50;;;;;;5009436;28;20089;-52
2023/03/19 05:44:00;;;;;;;20.50;18.52;;;27.60;76.40;;;;;;5007490;28;20030;-49
2023/03/19 05:46:27;;;;;;;20.88;18.75;;;27.60;76.20;;;;;;5012583;28;20022;-51
2023/03/19 05:48:53;;;;;;;21.17;19.10;;;27.60;76.20;;;;;;5027032;28;20113;-48
2023/03/19 05:51:20;;;;;;;22.13;19.92;;;27.60;76.20;;;;;;5015790;28;20314;-51
2023/03/19 05:53:47;;;;;;;21.27;19.23;;;27.60;76.10;;;;;;5023448;28;20037;-43
2023/03/19 05:56:13;;;;;;;23.08;20.70;;;27.60;76.00;;;;;;5026934;28;20337;-42
2023/03/19 05:58:40;;;;;;;22.17;19.90;;;27.60;75.90;;;;;;5010542;28;20049;-46
2023/03/19 06:01:07;;;;;;;22.83;20.13;;;27.60;75.80;;;;;;5006865;28;20101;-45
2023/03/19 06:03:34;;;;;;;23.17;20.73;;;27.60;75.90;;;;;;5006847;28;20034;-49
2023/03/19 06:06:00;;;;;;;23.25;20.67;;;27.60;75.90;;;;;;5006828;28;20275;-52
2023/03/19 06:08:27;;;;;;;21.80;19.63;;;27.60;76.00;;;;;;5014108;28;20044;-45
2023/03/19 06:10:53;;;;;;;21.20;19.20;;;27.50;75.90;;;;;;5018363;28;20215;-45
2023/03/19 06:13:20;;;;;;;23.10;19.15;;;27.50;76.00;;;;;;5018382;28;20030;-44
2023/03/19 06:15:50;;;;;;;22.80;19.85;;;27.50;76.10;;;;;;5016479;28;20029;-46
2023/03/19 06:18:19;;;;;;;36.10;20.95;;;27.50;76.30;;;;;;5024635;28;20040;-47
2023/03/19 06:20:47;;;;;;;20.58;18.67;;;27.40;76.30;;;;;;5010520;28;20030;-44
2023/03/19 06:23:14;;;;;;;21.35;18.85;;;27.40;76.40;;;;;;5020639;28;20022;-44
2023/03/19 06:25:40;;;;;;;21.30;19.33;;;27.40;76.50;;;;;;5015730;28;20061;-46
2023/03/19 06:28:07;;;;;;;22.42;20.00;;;27.40;76.70;;;;;;5009905;28;20018;-46
2023/03/19 06:30:33;;;;;;;21.67;19.50;;;27.40;76.80;;;;;;5019265;28;20034;-52
2023/03/19 06:33:00;;;;;;;21.75;19.60;;;27.40;76.80;;;;;;5016078;28;20026;-57
2023/03/19 06:35:27;;;;;;;24.33;19.73;;;27.30;76.80;;;;;;5021805;28;20030;-55
2023/03/19 06:37:53;;;;;;;21.48;19.23;;;27.30;76.80;;;;;;5006196;28;20039;-50
2023/03/19 06:40:20;;;;;;;21.50;19.40;;;27.30;76.70;;;;;;5006210;28;20072;-52
2023/03/19 06:42:47;;;;;;;21.48;19.30;;;27.30;76.80;;;;;;5013657;28;20060;-49
2023/03/19 06:45:17;;;;;;;20.88;18.88;;;27.30;76.60;;;;;;5026130;28;20038;-45
2023/03/19 06:47:45;;;;;;;21.45;19.25;;;27.30;76.40;;;;;;5025982;28;20310;-51
2023/03/19 06:50:15;;;;;;;21.05;18.92;;;27.30;76.40;;;;;;5025933;28;20298;-50
2023/03/19 06:52:42;;;;;;;21.88;19.45;;;27.30;76.50;;;;;;5025438;28;20257;-45
2023/03/19 06:55:10;;;;;;;22.48;19.67;;;27.30;76.30;;;;;;5023772;28;20297;-48
2023/03/19 06:57:36;;;;;;;21.77;19.63;;;27.30;76.50;;;;;;5019540;28;20066;-49
2023/03/19 07:00:05;;;;;;;21.95;19.58;;;27.30;76.40;;;;;;5012059;28;20033;-60
2023/03/19 07:02:32;;;;;;;21.90;19.55;;;27.30;76.30;;;;;;5017591;28;20038;-45
2023/03/19 07:04:59;;;;;;;21.23;19.02;;;27.30;76.20;;;;;;5017742;28;20085;-48
2023/03/19 07:07:25;;;;;;;22.17;19.55;;;27.30;76.10;;;;;;5005550;28;20026;-45
2023/03/19 07:09:52;;;;;;;23.25;19.70;;;27.30;76.20;;;;;;5013160;28;20061;-49
2023/03/19 07:12:19;;;;;;;21.85;19.75;;;27.30;76.30;;;;;;5013355;28;20022;-55
2023/03/19 07:14:45;;;;;;;21.25;18.92;;;27.30;76.30;;;;;;5005778;28;20037;-59
2023/03/19 07:17:12;;;;;;;21.30;19.05;;;27.30;76.40;;;;;;5024423;28;20014;-51
2023/03/19 07:19:38;;;;;;;21.10;18.77;;;27.20;76.20;;;;;;5019807;28;20032;-44
2023/03/19 07:22:05;;;;;;;23.90;19.33;;;27.30;76.40;;;;;;5024941;28;20033;-43
2023/03/19 07:24:32;;;;;;;21.15;19.05;;;27.30;76.30;;;;;;5025325;28;20030;-46
2023/03/19 07:26:58;;;;;;;20.60;18.60;;;27.30;76.20;;;;;;5025091;28;20037;-49
2023/03/19 07:29:25;;;;;;;20.73;18.60;;;27.30;75.90;;;;;;5025116;28;20045;-48
2023/03/19 07:31:51;;;;;;;20.85;18.63;;;27.30;75.90;;;;;;5024909;28;20053;-45
2023/03/19 07:34:18;;;;;;;20.20;18.10;;;27.30;75.90;;;;;;5025152;28;20369;-51
2023/03/19 07:36:46;;;;;;;20.15;18.08;;;27.30;76.00;;;;;;5024934;28;20021;-50
2023/03/19 07:39:12;;;;;;;20.20;18.13;;;27.30;75.90;;;;;;5024907;28;20460;-48
2023/03/19 07:41:39;;;;;;;20.83;18.73;;;27.30;75.90;;;;;;5024885;28;20132;-48
2023/03/19 07:44:06;;;;;;;19.73;17.75;;;27.30;75.90;;;;;;5024876;28;20033;-47
2023/03/19 07:46:32;;;;;;;20.55;18.55;;;27.30;75.80;;;;;;5024521;28;20417;-45
2023/03/19 07:48:59;;;;;;;20.85;18.75;;;27.30;75.80;;;;;;5024821;28;20093;-57
2023/03/19 07:51:26;;;;;;;20.40;18.20;;;27.30;75.80;;;;;;5024715;28;20030;-45
2023/03/19 07:53:52;;;;;;;20.80;18.70;;;27.30;75.70;;;;;;5024708;28;20030;-50
2023/03/19 07:56:19;;;;;;;19.55;17.75;;;27.30;75.60;;;;;;5024737;28;20076;-44
2023/03/19 07:58:45;;;;;;;20.77;18.77;;;27.30;75.70;;;;;;5024719;28;20160;-45
2023/03/19 08:01:12;;;;;;;21.52;18.75;;;27.30;75.50;;;;;;5024326;28;20028;-42
2023/03/19 08:03:39;;;;;;;21.02;17.90;;;27.30;75.30;;;;;;5024496;28;20080;-47
2023/03/19 08:06:05;;;;;;;20.25;18.08;;;27.30;75.10;;;;;;5024332;28;20026;-46
2023/03/19 08:08:33;;;;;;;20.70;18.70;;;27.30;75.10;;;;;;5024770;28;20041;-51
2023/03/19 08:11:01;;;;;;;20.80;18.58;;;27.30;75.10;;;;;;5024327;28;20102;-49
2023/03/19 08:13:30;;;;;;;21.10;18.83;;;27.30;75.10;;;;;;5024318;28;20025;-47
2023/03/19 08:15:57;;;;;;;22.60;19.15;;;27.30;75.10;;;;;;5024352;28;20025;-43
2023/03/19 08:18:24;;;;;;;20.67;18.58;;;27.30;75.20;;;;;;5024189;28;20025;-42
2023/03/19 08:20:50;;;;;;;21.90;19.48;;;27.30;75.20;;;;;;5024126;28;20022;-44
2023/03/19 08:23:17;;;;;;;20.83;18.70;;;27.30;75.30;;;;;;5024307;28;20217;-47
2023/03/19 08:25:44;;;;;;;21.58;19.35;;;27.30;75.30;;;;;;5024258;28;20081;-47
2023/03/19 08:28:11;;;;;;;21.65;19.42;;;27.30;75.40;;;;;;5024304;28;20057;-44
2023/03/19 08:30:38;;;;;;;22.08;19.73;;;27.30;75.90;;;;;;5023852;28;20037;-44
2023/03/19 08:33:05;;;;;;;21.60;19.27;;;27.30;75.40;;;;;;5024352;28;20036;-48
2023/03/19 08:35:32;;;;;;;21.65;19.63;;;27.30;75.50;;;;;;5024444;28;20041;-47
2023/03/19 08:37:58;;;;;;;22.08;19.88;;;27.30;75.60;;;;;;5024098;28;20088;-49
2023/03/19 08:40:25;;;;;;;22.05;19.48;;;27.30;75.60;;;;;;5024004;28;20120;-51
2023/03/19 08:42:53;;;;;;;21.73;19.33;;;27.30;75.70;;;;;;5023962;28;20046;-44
2023/03/19 08:45:20;;;;;;;24.85;20.00;;;27.30;75.70;;;;;;5024492;28;20057;-43
2023/03/19 08:47:48;;;;;;;22.88;19.88;;;27.30;75.90;;;;;;5022391;28;20092;-51
2023/03/19 08:50:17;;;;;;;21.45;19.30;;;27.30;75.90;;;;;;5006418;28;20299;-42
2023/03/19 08:52:44;;;;;;;22.95;20.15;;;27.30;75.90;;;;;;5004781;28;20454;-47
2023/03/19 08:55:10;;;;;;;22.50;20.10;;;27.30;76.00;;;;;;5004500;28;20034;-47
2023/03/19 08:57:37;;;;;;;22.33;19.98;;;27.30;76.00;;;;;;5023260;28;20022;-57
2023/03/19 09:00:05;;;;;;;24.10;20.13;;;27.30;76.10;;;;;;5008335;28;20206;-48
2023/03/19 09:02:31;;;;;;;22.90;19.90;;;27.30;76.00;;;;;;5008072;28;20310;-47
2023/03/19 09:04:58;;;;;;;20.83;18.75;;;27.30;76.00;;;;;;5009199;28;20045;-44
2023/03/19 09:07:25;;;;;;;21.42;19.13;;;27.30;76.00;;;;;;5013622;28;20025;-50
2023/03/19 09:09:51;;;;;;;21.27;18.98;;;27.30;75.80;;;;;;5027913;28;20104;-47
2023/03/19 09:12:18;;;;;;;22.02;19.42;;;27.30;75.70;;;;;;5027443;28;20030;-53
2023/03/19 09:14:45;;;;;;;22.60;20.33;;;27.30;75.70;;;;;;5027578;28;20022;-47
2023/03/19 09:17:12;;;;;;;21.58;19.27;;;27.30;75.70;;;;;;5027467;28;20030;-46
2023/03/19 09:19:39;;;;;;;22.13;19.40;;;27.30;75.70;;;;;;5027786;28;20133;-45
2023/03/19 09:22:06;;;;;;;22.20;19.75;;;27.30;75.90;;;;;;5027237;28;20030;-42
2023/03/19 09:24:32;;;;;;;21.65;19.33;;;27.30;75.90;;;;;;5027679;28;20104;-44
2023/03/19 09:26:59;;;;;;;24.13;19.88;;;27.30;76.10;;;;;;5027376;28;20213;-43
2023/03/19 09:29:26;;;;;;;22.10;19.90;;;27.20;76.00;;;;;;5027216;28;20038;-45
2023/03/19 09:31:52;;;;;;;20.92;18.92;;;27.20;76.10;;;;;;5027384;28;20018;-44
2023/03/19 09:34:19;;;;;;;22.23;19.88;;;27.20;76.00;;;;;;5027426;28;20092;-45
2023/03/19 09:36:46;;;;;;;21.45;19.15;;;27.20;76.10;;;;;;5027487;28;20040;-46
2023/03/19 09:39:12;;;;;;;20.40;18.38;;;27.20;76.20;;;;;;5027386;28;20088;-47
2023/03/19 09:42:10;;;;;;;21.88;19.73;;;27.20;76.30;;;;;;5026815;28;20033;-46
2023/03/19 09:44:43;;;;;;;23.52;19.25;;;27.20;76.50;;;;;;5027151;28;20048;-44
2023/03/19 09:47:27;;;;;;;22.10;19.38;;;27.20;76.50;;;;;;5026831;28;20030;-44
2023/03/19 09:50:00;;;;;;;21.63;19.33;;;27.20;76.50;;;;;;5027034;28;20029;-44
2023/03/19 09:52:50;;;;;;;21.92;19.63;;;27.10;76.50;;;;;;5027064;28;20030;-52
2023/03/19 09:55:23;;;;;;;21.35;19.20;;;27.20;76.50;;;;;;5027266;28;20089;-46
2023/03/19 09:57:55;;;;;;;21.00;19.00;;;27.20;76.60;;;;;;5026694;28;20030;-49
2023/03/19 10:00:35;;;;;;;20.75;18.77;;;27.20;76.60;;;;;;5027135;28;20030;-46
2023/03/19 10:03:11;;;;;;;21.23;19.02;;;27.10;76.70;;;;;;5026932;28;20041;-50
2023/03/19 10:05:44;;;;;;;22.40;19.20;;;27.10;76.70;;;;;;5026366;28;20056;-47
2023/03/19 10:08:38;;;;;;;22.25;19.25;;;27.10;76.70;;;;;;5026577;28;20342;-55
2023/03/19 10:11:06;;;;;;;24.33;19.92;;;27.10;76.60;;;;;;5026802;28;20030;-44
2023/03/19 10:14:10;;;;;;;22.88;20.20;;;27.10;76.70;;;;;;5026606;28;20044;-57
2023/03/19 10:16:40;;;;;;;22.48;19.65;;;27.10;76.80;;;;;;4998653;28;20084;-52
2023/03/19 10:19:12;;;;;;;22.50;20.23;;;27.10;77.10;;;;;;5026386;28;20030;-45
2023/03/19 10:21:49;;;;;;;22.55;20.05;;;27.10;77.10;;;;;;5026288;28;20306;-47
2023/03/19 10:24:26;;;;;;;22.25;19.85;;;27.10;77.10;;;;;;5026236;28;20218;-50
2023/03/19 10:27:04;;;;;;;24.27;20.73;;;27.10;77.10;;;;;;5026357;28;20017;-44
2023/03/19 10:29:31;;;;;;;23.92;20.90;;;27.10;77.00;;;;;;5026512;28;20042;-53
2023/03/19 10:32:19;;;;;;;24.58;20.50;;;27.10;77.00;;;;;;5026368;28;20018;-49
2023/03/19 10:34:49;;;;;;;24.30;21.70;;;27.10;77.20;;;;;;5026082;28;20034;-47
2023/03/19 10:37:19;;;;;;;25.70;21.67;;;27.10;77.30;;;;;;5025861;28;20025;-47
2023/03/19 10:39:48;;;;;;;27.05;21.95;;;27.10;77.30;;;;;;5026351;28;20065;-52
2023/03/19 10:42:52;;;;;;;26.80;22.00;;;27.10;77.40;;;;;;5025917;28;20202;-45
2023/03/19 10:45:32;;;;;;;24.23;21.17;;;27.10;77.60;;;;;;5022685;28;20211;-44
2023/03/19 10:48:00;;;;;;;25.38;21.30;;;27.10;77.60;;;;;;5025696;28;20026;-49
2023/03/19 10:50:33;;;;;;;22.70;20.30;;;27.10;77.70;;;;;;5025953;28;20037;-49
2023/03/19 10:53:14;;;;;;;24.30;21.23;;;27.10;77.60;;;;;;5025542;28;20036;-44
2023/03/19 10:55:52;;;;;;;29.02;20.35;;;27.00;77.50;;;;;;5025426;28;20084;-49
2023/03/19 10:58:24;;;;;;;26.15;20.83;;;27.10;77.60;;;;;;5025723;28;20022;-45
2023/03/19 11:01:04;;;;;;;27.35;20.52;;;27.10;77.60;;;;;;5025547;28;20037;-47
2023/03/19 11:03:38;;;;;;;27.63;21.15;;;27.10;77.70;;;;;;5025544;28;20033;-43
2023/03/19 11:06:16;;;;;;;27.95;21.75;;;27.10;77.70;;;;;;5025673;28;20076;-42
2023/03/19 11:08:49;;;;;;;26.40;20.85;;;27.10;77.80;;;;;;5011871;28;20210;-48
2023/03/19 11:11:45;;;;;;;25.85;21.33;;;27.10;77.90;;;;;;5005677;28;20072;-49
2023/03/19 11:14:35;;;;;;;25.90;20.85;;;27.10;77.80;;;;;;4985772;28;20298;-44
2023/03/19 11:17:05;;;;;;;32.45;21.70;;;27.10;77.90;;;;;;5005793;28;20038;-50
2023/03/19 11:19:40;;;;;;;27.70;21.50;;;27.10;78.10;;;;;;5021173;28;20352;-51
2023/03/19 11:22:13;;;;;;;24.40;20.88;;;27.20;78.00;;;;;;5024575;28;20034;-44
2023/03/19 11:24:41;;;;;;;26.25;21.08;;;27.20;77.80;;;;;;5021309;28;20304;-52
2023/03/19 11:27:10;;;;;;;26.65;21.00;;;27.20;77.90;;;;;;5005405;28;20038;-57
2023/03/19 11:29:40;;;;;;;24.80;21.13;;;27.20;77.80;;;;;;5005304;28;20031;-48
2023/03/19 11:32:29;;;;;;;25.70;20.73;;;27.20;77.90;;;;;;5005213;28;20022;-52
2023/03/19 11:35:27;;;;;;;27.42;20.33;;;27.20;77.80;;;;;;5005779;28;20084;-45
2023/03/19 11:38:02;;;;;;;25.15;21.10;;;27.20;77.80;;;;;;5005100;28;20038;-50
2023/03/19 11:40:49;;;;;;;23.10;20.65;;;27.20;77.90;;;;;;5024365;28;20052;-48
2023/03/19 11:43:37;;;;;;;24.25;19.60;;;27.20;77.90;;;;;;5020399;28;20097;-47
2023/03/19 11:46:38;;;;;;;22.92;19.77;;;27.30;78.00;;;;;;5016628;28;20052;-45
2023/03/19 11:49:15;;;;;;;26.98;20.33;;;27.30;77.60;;;;;;5024111;28;20038;-48
2023/03/19 11:52:11;;;;;;;29.92;20.42;;;27.20;77.40;;;;;;5024325;28;20120;-48
2023/03/19 11:55:03;;;;;;;36.80;21.77;;;27.20;77.60;;;;;;5024869;28;20314;-50
2023/03/19 11:57:32;;;;;;;29.75;19.15;;;27.20;78.30;;;;;;5024890;28;20025;-43
2023/03/19 12:00:14;;;;;;;33.03;20.40;;;27.20;78.90;;;;;;5024830;28;20038;-42
2023/03/19 12:03:18;;;;;;;31.27;20.20;;;27.00;79.50;;;;;;5019885;28;20025;-42
2023/03/19 12:05:55;;;;;;;32.40;19.95;;;26.90;79.10;;;;;;4988386;28;20061;-44
2023/03/19 12:08:30;;;;;;;26.45;20.48;;;26.90;79.60;;;;;;5001609;28;20034;-49
2023/03/19 12:11:15;;;;;;;29.40;20.15;;;27.00;79.40;;;;;;5004525;28;20211;-48
2023/03/19 12:14:01;;;;;;;23.48;20.58;;;27.10;79.10;;;;;;5004606;28;20026;-49
2023/03/19 12:16:33;;;;;;;24.90;20.50;;;27.20;79.00;;;;;;5004712;28;20038;-48
2023/03/19 12:19:13;;;;;;;23.15;20.67;;;27.20;78.80;;;;;;5004785;28;20073;-47
2023/03/19 12:21:49;;;;;;;22.50;20.15;;;27.30;78.70;;;;;;5004566;28;20034;-47
2023/03/19 12:24:38;;;;;;;23.30;20.48;;;27.30;78.40;;;;;;5003889;28;20022;-46
2023/03/19 12:27:19;;;;;;;22.73;20.45;;;27.30;78.40;;;;;;5009609;28;20026;-47
2023/03/19 12:30:19;;;;;;;22.13;19.92;;;27.30;77.90;;;;;;5010523;28;20034;-52
2023/03/19 12:32:52;;;;;;;22.90;20.60;;;27.40;78.10;;;;;;4984958;28;20049;-47
2023/03/19 12:35:45;;;;;;;23.27;19.52;;;27.40;77.80;;;;;;5016569;28;20045;-46
2023/03/19 12:38:56;;;;;;;23.27;19.23;;;27.50;77.80;;;;;;5004893;28;20034;-48
2023/03/19 12:41:28;;;;;;;22.60;20.17;;;27.50;78.00;;;;;;4955375;29;20054;-49
2023/03/19 12:43:57;;;;;;;23.30;20.73;;;27.50;77.80;;;;;;4962714;29;20033;-53
2023/03/19 12:46:27;;;;;;;23.33;20.30;;;27.50;78.00;;;;;;4995955;28;20038;-51